Time;durP1;ratioP1;P1;durP2;ratioP2;P2;SDS_P1;SDS_P2;PMS_P1;PMS_P2;Temp;Humidity;BMP_temperature;BMP_pressure;BME280_temperature;BME280_humidity;BME280_pressure;Samples;Min_cycle;Max_cycle;Signal;HPM_P1;HPM_P2
2021/08/28 00:01:36;;;;;;;;;;;;;;;19.74;64.79;101723.38;5057229;28;1893;-56
2021/08/28 00:04:01;;;;;;;;;;;;;;;19.75;65.99;101726.94;5057527;28;1470;-56
2021/08/28 00:06:26;;;;;;;;;;;;;;;19.74;65.89;101728.78;5057333;28;946;-56
2021/08/28 00:08:51;;;;;;;;;;;;;;;19.75;65.14;101726.94;5057465;28;1001;-56
2021/08/28 00:11:16;;;;;;;;;;;;;;;19.74;65.69;101728.78;5056944;28;1147;-57
2021/08/28 00:13:43;;;;;;;;;;;;;;;19.73;65.70;101718.97;5055972;28;1023;-56
2021/08/28 00:16:08;;;;;;;;;;;;;;;19.73;65.50;101716.25;5057048;28;846;-51
2021/08/28 00:18:33;;;;;;;;;;;;;;;19.73;65.73;101712.69;5075907;28;1471;-54
2021/08/28 00:20:58;;;;;;;;;;;;;;;19.72;65.05;101710.97;5076941;28;1982;-52
2021/08/28 00:23:23;;;;;;;;;;;;;;;19.72;65.50;101709.13;5077004;28;882;-55
2021/08/28 00:25:49;;;;;;;;;;;;;;;19.73;65.73;101712.69;5076831;28;1988;-54
2021/08/28 00:28:14;;;;;;;;;;;;;;;19.72;65.24;101701.03;5076766;28;1064;-54
2021/08/28 00:30:39;;;;;;;;;;;;;;;19.72;66.34;101711.84;5072580;28;1568;-51
2021/08/28 00:33:04;;;;;;;;;;;;;;;19.72;65.97;101709.13;5056936;28;1081;-53
2021/08/28 00:35:29;;;;;;;;;;;;;;;19.72;66.01;101713.69;5057147;28;1021;-51
2021/08/28 00:37:54;;;;;;;;;;;;;;;19.72;66.02;101713.69;5056897;28;1506;-55
2021/08/28 00:40:19;;;;;;;;;;;;;;;19.72;65.76;101711.84;5056860;28;1064;-54
2021/08/28 00:42:44;;;;;;;;;;;;;;;19.72;65.52;101716.41;5056911;28;1890;-53
2021/08/28 00:45:09;;;;;;;;;;;;;;;19.71;65.37;101710.13;5070494;28;1805;-51
2021/08/28 00:47:34;;;;;;;;;;;;;;;19.70;65.82;101703.03;5077046;28;1740;-53
2021/08/28 00:49:59;;;;;;;;;;;;;;;19.71;66.04;101703.84;5076570;28;1026;-55
2021/08/28 00:52:24;;;;;;;;;;;;;;;19.71;65.73;101709.28;5075526;28;1334;-52
2021/08/28 00:54:49;;;;;;;;;;;;;;;19.69;66.23;101704.03;5076167;28;1080;-51
2021/08/28 00:57:15;;;;;;;;;;;;;;;19.69;66.38;101706.72;5061726;28;1795;-55
2021/08/28 00:59:40;;;;;;;;;;;;;;;19.70;65.86;101710.28;5056458;28;1983;-56
2021/08/28 01:02:05;;;;;;;;;;;;;;;19.69;66.77;101716.69;5056284;28;1953;-51
2021/08/28 01:04:30;;;;;;;;;;;;;;;19.67;66.07;101703.31;5056172;28;1985;-54
2021/08/28 01:06:55;;;;;;;;;;;;;;;19.69;66.16;101709.44;5056439;28;1442;-55
2021/08/28 01:09:20;;;;;;;;;;;;;;;19.68;66.01;101709.56;5056486;28;994;-54
2021/08/28 01:11:45;;;;;;;;;;;;;;;19.68;65.88;101715.84;5066438;28;1718;-52
2021/08/28 01:14:10;;;;;;;;;;;;;;;19.68;65.95;101713.13;5076245;28;1036;-53
2021/08/28 01:16:35;;;;;;;;;;;;;;;19.67;66.40;101697.91;5076448;28;1531;-53
2021/08/28 01:19:00;;;;;;;;;;;;;;;19.67;65.42;101702.44;5075991;28;921;-54
2021/08/28 01:21:25;;;;;;;;;;;;;;;19.66;65.80;101701.59;5075955;28;1967;-54
2021/08/28 01:23:51;;;;;;;;;;;;;;;19.65;65.89;101704.44;5068048;28;1737;-56
2021/08/28 01:26:16;;;;;;;;;;;;;;;19.64;66.43;101708.97;5055765;28;949;-55
2021/08/28 01:28:41;;;;;;;;;;;;;;;19.64;66.36;101711.69;5056148;28;998;-54
2021/08/28 01:31:06;;;;;;;;;;;;;;;19.64;66.39;101706.28;5055578;28;890;-55
2021/08/28 01:33:31;;;;;;;;;;;;;;;19.63;66.42;101703.72;5055652;28;1001;-55
2021/08/28 01:35:56;;;;;;;;;;;;;;;19.63;66.48;101712.69;5062159;28;1850;-55
2021/08/28 01:38:21;;;;;;;;;;;;;;;19.63;66.14;101712.69;5075488;28;858;-52
2021/08/28 01:40:46;;;;;;;;;;;;;;;19.64;66.57;101713.53;5075578;28;1615;-54
2021/08/28 01:43:11;;;;;;;;;;;;;;;19.63;66.25;101715.38;5075359;28;1951;-55
2021/08/28 01:45:36;;;;;;;;;;;;;;;19.63;66.04;101712.69;5075403;28;834;-54
2021/08/28 01:48:01;;;;;;;;;;;;;;;19.63;66.25;101706.41;5074982;28;1169;-54
2021/08/28 01:50:26;;;;;;;;;;;;;;;19.62;66.69;101705.56;5073161;28;1743;-58
2021/08/28 01:52:51;;;;;;;;;;;;;;;19.62;66.21;101710.97;5075127;28;1026;-58
2021/08/28 01:55:16;;;;;;;;;;;;;;;19.64;66.63;101713.53;5075464;28;844;-57
2021/08/28 01:57:42;;;;;;;;;;;;;;;19.56;66.68;101721.47;5075623;28;935;-57
2021/08/28 02:00:07;;;;;;;;;;;;;;;19.57;65.91;101718.63;5075026;28;1009;-57
2021/08/28 02:02:32;;;;;;;;;;;;;;;19.58;66.61;101714.94;5074470;28;1949;-54
2021/08/28 02:04:57;;;;;;;;;;;;;;;19.59;67.06;101716.66;5075340;28;1770;-54
2021/08/28 02:07:22;;;;;;;;;;;;;;;19.59;66.63;101716.66;5075426;28;1004;-53
2021/08/28 02:09:47;;;;;;;;;;;;;;;19.59;66.75;101716.66;5074893;28;1017;-53
2021/08/28 02:12:12;;;;;;;;;;;;;;;19.59;66.53;101724.75;5074535;28;1149;-54
2021/08/28 02:14:37;;;;;;;;;;;;;;;19.59;67.29;101716.66;5074357;28;1795;-56
2021/08/28 02:17:02;;;;;;;;;;;;;;;19.59;66.95;101721.19;5075288;28;914;-58
2021/08/28 02:19:27;;;;;;;;;;;;;;;19.58;66.76;101720.34;5075291;28;1542;-55
2021/08/28 02:21:52;;;;;;;;;;;;;;;19.54;67.34;101727.00;5075219;28;1906;-51
2021/08/28 02:24:17;;;;;;;;;;;;;;;19.56;67.16;101722.31;5074965;28;1970;-49
2021/08/28 02:26:43;;;;;;;;;;;;;;;19.55;66.82;101720.59;5075365;28;1052;-52
2021/08/28 02:29:08;;;;;;;;;;;;;;;19.56;67.02;101726.88;5074168;28;1955;-53
2021/08/28 02:31:33;;;;;;;;;;;;;;;19.54;67.30;101724.31;5055167;28;851;-54
2021/08/28 02:33:58;;;;;;;;;;;;;;;19.56;67.10;101726.88;5054835;28;1025;-51
2021/08/28 02:36:23;;;;;;;;;;;;;;;19.56;67.53;101721.47;5055121;28;938;-55
2021/08/28 02:38:48;;;;;;;;;;;;;;;19.57;66.94;101720.47;5058214;28;1475;-52
2021/08/28 02:41:13;;;;;;;;;;;;;;;19.56;67.03;101716.06;5057868;28;1946;-51
2021/08/28 02:43:38;;;;;;;;;;;;;;;19.56;66.96;101716.91;5073684;28;1858;-53
2021/08/28 02:46:03;;;;;;;;;;;;;;;19.55;67.78;101714.34;5078614;28;1380;-53
2021/08/28 02:48:28;;;;;;;;;;;;;;;19.55;66.61;101720.59;5078905;28;1044;-54
2021/08/28 02:50:53;;;;;;;;;;;;;;;19.56;67.22;101714.22;5079107;28;953;-53
2021/08/28 02:53:18;;;;;;;;;;;;;;;19.54;67.58;101718.88;5078523;28;837;-52
2021/08/28 02:55:43;;;;;;;;;;;;;;;19.54;67.54;101718.88;5064721;28;1807;-52
2021/08/28 02:58:08;;;;;;;;;;;;;;;19.53;67.82;101711.78;5058712;28;1644;-51
2021/08/28 03:00:34;;;;;;;;;;;;;;;19.54;67.93;101713.47;5058581;28;997;-52
2021/08/28 03:02:59;;;;;;;;;;;;;;;19.54;67.10;101715.31;5070316;28;1986;-53
2021/08/28 03:05:24;;;;;;;;;;;;;;;19.55;67.37;101714.34;5078657;28;863;-53
2021/08/28 03:07:49;;;;;;;;;;;;;;;19.53;66.86;101717.19;5078424;28;1004;-54
2021/08/28 03:10:14;;;;;;;;;;;;;;;19.55;67.08;101717.03;5064893;28;1888;-51
2021/08/28 03:12:39;;;;;;;;;;;;;;;19.53;67.84;101711.78;5058648;28;1967;-54
2021/08/28 03:15:04;;;;;;;;;;;;;;;19.53;67.47;101700.97;5058155;28;893;-53
2021/08/28 03:17:29;;;;;;;;;;;;;;;19.51;67.30;101702.13;5058525;28;1056;-54
2021/08/28 03:19:54;;;;;;;;;;;;;;;19.50;67.02;101701.25;5057906;28;1105;-53
2021/08/28 03:22:19;;;;;;;;;;;;;;;19.51;67.62;101711.06;5057845;28;1902;-53
2021/08/28 03:24:44;;;;;;;;;;;;;;;19.51;68.04;101710.22;5057759;28;1759;-53
2021/08/28 03:27:10;;;;;;;;;;;;;;;19.51;66.75;101713.78;5057891;28;1065;-53
2021/08/28 03:29:35;;;;;;;;;;;;;;;19.51;67.16;101712.94;5058338;28;954;-55
2021/08/28 03:32:00;;;;;;;;;;;;;;;19.47;67.40;101706.91;5058312;28;906;-54
2021/08/28 03:34:25;;;;;;;;;;;;;;;19.48;67.44;101711.31;5065478;28;1848;-53
2021/08/28 03:36:50;;;;;;;;;;;;;;;19.48;66.56;101713.16;5077865;28;1088;-55
2021/08/28 03:39:15;;;;;;;;;;;;;;;19.47;67.67;101715.00;5077634;28;894;-53
2021/08/28 03:41:40;;;;;;;;;;;;;;;19.43;67.00;101714.41;5076268;28;1898;-53
2021/08/28 03:44:05;;;;;;;;;;;;;;;19.46;67.14;101720.53;5078130;28;934;-55
2021/08/28 03:46:30;;;;;;;;;;;;;;;19.44;66.81;101712.56;5075825;28;1823;-53
2021/08/28 03:48:55;;;;;;;;;;;;;;;19.45;67.21;101713.44;5077541;28;1013;-54
2021/08/28 03:51:21;;;;;;;;;;;;;;;19.45;67.66;101719.69;5077621;28;977;-51
2021/08/28 03:53:46;;;;;;;;;;;;;;;19.43;67.27;101717.13;5077386;28;925;-50
2021/08/28 03:56:11;;;;;;;;;;;;;;;19.44;66.59;101720.69;5077625;28;1069;-54
2021/08/28 03:58:36;;;;;;;;;;;;;;;19.42;67.03;101720.81;5077230;28;909;-52
2021/08/28 04:01:01;;;;;;;;;;;;;;;19.43;66.79;101727.06;5070112;28;1977;-54
2021/08/28 04:03:26;;;;;;;;;;;;;;;19.42;66.67;101723.50;5057740;28;1554;-54
2021/08/28 04:05:51;;;;;;;;;;;;;;;19.42;66.20;101730.78;5057478;28;1589;-50
2021/08/28 04:08:16;;;;;;;;;;;;;;;19.42;67.23;101728.06;5057510;28;1068;-53
2021/08/28 04:10:41;;;;;;;;;;;;;;;19.43;66.25;101721.66;5057087;28;1217;-53
2021/08/28 04:13:06;;;;;;;;;;;;;;;19.43;66.25;101724.38;5057485;28;859;-51
2021/08/28 04:15:31;;;;;;;;;;;;;;;19.43;66.88;101716.25;5064091;28;1927;-54
2021/08/28 04:17:56;;;;;;;;;;;;;;;19.42;67.58;101712.69;5065600;28;1792;-54
2021/08/28 04:20:22;;;;;;;;;;;;;;;19.42;67.41;101719.97;5057027;28;866;-55
2021/08/28 04:22:47;;;;;;;;;;;;;;;19.42;67.51;101719.97;5058040;28;1910;-56
2021/08/28 04:25:12;;;;;;;;;;;;;;;19.42;67.69;101722.66;5070152;28;1848;-55
2021/08/28 04:27:37;;;;;;;;;;;;;;;19.37;67.31;101714.94;5077158;28;1802;-55
2021/08/28 04:30:02;;;;;;;;;;;;;;;19.41;67.17;101720.94;5077117;28;910;-55
2021/08/28 04:32:27;;;;;;;;;;;;;;;19.40;67.35;101730.03;5076614;28;827;-51
2021/08/28 04:34:52;;;;;;;;;;;;;;;19.38;66.99;101724.78;5076707;28;984;-54
2021/08/28 04:37:17;;;;;;;;;;;;;;;19.39;66.85;101712.13;5066673;28;1657;-54
2021/08/28 04:39:42;;;;;;;;;;;;;;;19.38;66.86;101721.22;5056665;28;936;-55
2021/08/28 04:42:07;;;;;;;;;;;;;;;19.37;67.14;101709.53;5056445;28;1945;-54
2021/08/28 04:44:32;;;;;;;;;;;;;;;19.38;67.31;101723.91;5056678;28;1899;-55
2021/08/28 04:46:58;;;;;;;;;;;;;;;19.39;66.83;101722.94;5053506;28;2480;-54
2021/08/28 04:49:23;;;;;;;;;;;;;;;19.40;67.65;101719.22;5055524;28;1863;-52
2021/08/28 04:51:48;;;;;;;;;;;;;;;19.39;66.77;101718.38;5055960;28;1596;-51
2021/08/28 04:54:13;;;;;;;;;;;;;;;19.37;66.76;101717.66;5056077;28;2100;-55
2021/08/28 04:56:38;;;;;;;;;;;;;;;19.38;66.96;101713.09;5057728;28;2218;-54
2021/08/28 04:59:03;;;;;;;;;;;;;;;19.38;66.96;101723.91;5058445;28;2099;-55
2021/08/28 05:01:28;;;;;;;;;;;;;;;19.32;67.25;101719.06;5043486;28;1905;-55
2021/08/28 05:03:53;;;;;;;;;;;;;;;19.34;67.21;101731.47;5044683;28;1694;-56
2021/08/28 05:06:18;;;;;;;;;;;;;;;19.36;67.77;101732.16;5053355;28;2132;-55
2021/08/28 05:08:43;;;;;;;;;;;;;;;19.38;67.36;101735.59;5052009;28;1848;-54
2021/08/28 05:11:08;;;;;;;;;;;;;;;19.39;66.42;101731.03;5047871;28;1738;-56
2021/08/28 05:13:33;;;;;;;;;;;;;;;19.40;67.72;101733.59;5052980;28;1862;-56
2021/08/28 05:15:58;;;;;;;;;;;;;;;19.40;68.16;101732.75;5063253;28;1804;-56
2021/08/28 05:18:24;;;;;;;;;;;;;;;19.38;67.88;101732.03;5055343;28;1963;-55
2021/08/28 05:20:49;;;;;;;;;;;;;;;19.39;67.18;101741.84;5054991;28;1879;-56
2021/08/28 05:23:14;;;;;;;;;;;;;;;19.36;67.55;101742.09;5055128;28;2370;-56
2021/08/28 05:25:39;;;;;;;;;;;;;;;19.34;67.58;101750.38;5055284;28;2075;-56
2021/08/28 05:28:04;;;;;;;;;;;;;;;19.39;67.86;101747.25;5052188;28;1840;-56
2021/08/28 05:30:29;;;;;;;;;;;;;;;19.39;67.68;101752.66;5046832;28;1848;-55
2021/08/28 05:32:54;;;;;;;;;;;;;;;19.39;67.80;101747.25;5047944;28;1398;-56
2021/08/28 05:35:19;;;;;;;;;;;;;;;19.39;68.21;101747.25;5043085;28;1549;-56
2021/08/28 05:37:44;;;;;;;;;;;;;;;19.42;67.37;101742.44;5039002;28;1914;-55
2021/08/28 05:40:12;;;;;;;;;;;;;;;19.44;68.09;101753.13;5039414;28;1717;-56
2021/08/28 05:42:37;;;;;;;;;;;;;;;19.44;68.46;101753.13;5041332;28;1894;-55
2021/08/28 05:45:03;;;;;;;;;;;;;;;19.43;68.57;101754.09;5038076;28;1722;-54
2021/08/28 05:47:28;;;;;;;;;;;;;;;19.43;67.73;101749.56;5038056;28;1666;-56
2021/08/28 05:49:53;;;;;;;;;;;;;;;19.43;67.73;101752.25;5039062;28;1653;-55
2021/08/28 05:52:18;;;;;;;;;;;;;;;19.46;68.51;101753.84;5038497;28;1624;-56
2021/08/28 05:54:43;;;;;;;;;;;;;;;19.48;67.99;101761.81;5042506;28;1889;-54
2021/08/28 05:57:08;;;;;;;;;;;;;;;19.49;67.55;101753.56;5036689;28;1671;-53
2021/08/28 05:59:33;;;;;;;;;;;;;;;19.53;67.72;101763.13;5037196;28;1697;-54
2021/08/28 06:01:58;;;;;;;;;;;;;;;19.55;67.29;101752.19;5041947;28;1886;-51
2021/08/28 06:04:23;;;;;;;;;;;;;;;19.55;67.45;101758.47;5055093;28;1976;-54
2021/08/28 06:06:48;;;;;;;;;;;;;;;19.54;67.40;101759.44;5051471;28;1794;-56
2021/08/28 06:09:13;;;;;;;;;;;;;;;19.57;67.30;101752.91;5051806;28;1708;-52
2021/08/28 06:11:38;;;;;;;;;;;;;;;19.61;67.58;101757.94;5054112;28;1595;-55
2021/08/28 06:14:03;;;;;;;;;;;;;;;19.60;67.48;101755.34;5054817;28;1727;-56
2021/08/28 06:16:28;;;;;;;;;;;;;;;19.60;67.27;101756.22;5054644;28;1651;-55
2021/08/28 06:18:54;;;;;;;;;;;;;;;19.61;68.64;101767.88;5055084;28;2024;-54
2021/08/28 06:21:19;;;;;;;;;;;;;;;19.64;69.88;101763.06;5054706;28;1957;-55
2021/08/28 06:23:44;;;;;;;;;;;;;;;19.72;71.16;101765.94;5054850;28;1942;-56
2021/08/28 06:26:09;;;;;;;;;;;;;;;19.75;73.07;101768.38;5061554;28;1699;-57
2021/08/28 06:28:34;;;;;;;;;;;;;;;19.76;71.46;101767.38;5057033;28;1809;-55
2021/08/28 06:30:59;;;;;;;;;;;;;;;19.75;69.40;101770.22;5054632;28;1908;-51
2021/08/28 06:33:25;;;;;;;;;;;;;;;19.70;69.73;101773.34;5054427;28;1799;-54
2021/08/28 06:35:50;;;;;;;;;;;;;;;19.69;69.87;101771.63;5055894;28;1757;-56
2021/08/28 06:38:15;;;;;;;;;;;;;;;19.66;69.06;101763.78;5054891;28;1899;-55
2021/08/28 06:40:40;;;;;;;;;;;;;;;19.64;69.29;101762.22;5054450;28;2000;-54
2021/08/28 06:43:05;;;;;;;;;;;;;;;19.64;69.22;101770.31;5054657;28;1951;-54
2021/08/28 06:45:30;;;;;;;;;;;;;;;19.65;69.48;101766.63;5054540;28;1842;-55
2021/08/28 06:47:55;;;;;;;;;;;;;;;19.64;68.98;101770.31;5056521;28;2165;-53
2021/08/28 06:50:20;;;;;;;;;;;;;;;19.59;69.50;101778.84;5052762;28;1643;-52
2021/08/28 06:52:45;;;;;;;;;;;;;;;19.58;68.91;101773.56;5054597;28;2074;-55
2021/08/28 06:55:10;;;;;;;;;;;;;;;19.59;68.60;101778.84;5054492;28;1909;-55
2021/08/28 06:57:35;;;;;;;;;;;;;;;19.59;69.09;101776.13;5062458;28;2010;-54
2021/08/28 07:00:01;;;;;;;;;;;;;;;19.59;68.11;101780.69;5058812;28;1664;-55
2021/08/28 07:02:26;;;;;;;;;;;;;;;19.58;68.89;101778.97;5064159;28;1914;-54
2021/08/28 07:04:51;;;;;;;;;;;;;;;19.57;68.74;101780.81;5057286;28;1580;-55
2021/08/28 07:07:16;;;;;;;;;;;;;;;19.57;68.50;101780.81;5070447;28;1564;-55
2021/08/28 07:09:41;;;;;;;;;;;;;;;19.56;69.21;101780.94;5065360;28;1652;-55
2021/08/28 07:12:06;;;;;;;;;;;;;;;19.58;68.75;101781.66;5054446;28;1628;-56
2021/08/28 07:14:31;;;;;;;;;;;;;;;19.57;68.30;101778.13;5054902;28;1555;-54
2021/08/28 07:16:56;;;;;;;;;;;;;;;19.54;68.50;101786.47;5053343;28;1836;-54
2021/08/28 07:19:21;;;;;;;;;;;;;;;19.53;67.56;101790.19;5059812;28;1719;-56
2021/08/28 07:21:46;;;;;;;;;;;;;;;19.55;68.07;101790.03;5049430;28;1906;-55
2021/08/28 07:24:11;;;;;;;;;;;;;;;19.54;67.68;101797.31;5056723;28;1648;-54
2021/08/28 07:26:36;;;;;;;;;;;;;;;19.49;67.83;101786.03;5059276;28;1790;-55
2021/08/28 07:29:02;;;;;;;;;;;;;;;19.49;68.27;101788.72;5061862;28;2208;-55
2021/08/28 07:31:27;;;;;;;;;;;;;;;19.50;68.64;101782.38;5072550;28;1790;-55
2021/08/28 07:33:52;;;;;;;;;;;;;;;19.52;67.90;101788.50;5072243;28;2019;-55
2021/08/28 07:36:17;;;;;;;;;;;;;;;19.53;67.64;101789.31;5044670;28;1641;-54
2021/08/28 07:38:42;;;;;;;;;;;;;;;19.54;68.33;101788.34;5055133;28;1705;-55
2021/08/28 07:41:07;;;;;;;;;;;;;;;19.53;67.65;101784.78;5062566;28;1811;-56
2021/08/28 07:43:32;;;;;;;;;;;;;;;19.54;68.23;101791.91;5069198;28;1910;-55
2021/08/28 07:45:57;;;;;;;;;;;;;;;19.54;67.31;101791.91;5062651;28;1575;-55
2021/08/28 07:48:22;;;;;;;;;;;;;;;19.52;67.50;101788.50;5060365;28;1491;-54
2021/08/28 07:50:47;;;;;;;;;;;;;;;19.52;68.45;101790.34;5065364;28;1777;-56
2021/08/28 07:53:13;;;;;;;;;;;;;;;19.52;68.28;101806.56;5073051;28;1868;-56
2021/08/28 07:55:38;;;;;;;;;;;;;;;19.51;67.42;101796.75;5061180;28;1888;-55
2021/08/28 07:58:03;;;;;;;;;;;;;;;19.51;67.19;101794.03;5066297;28;2108;-53
2021/08/28 08:00:28;;;;;;;;;;;;;;;19.51;67.95;101799.44;5063961;28;1612;-56
2021/08/28 08:02:53;;;;;;;;;;;;;;;19.51;67.29;101796.75;5066698;28;1906;-54
2021/08/28 08:05:18;;;;;;;;;;;;;;;19.51;67.61;101792.19;5063659;28;1894;-56
2021/08/28 08:07:43;;;;;;;;;;;;;;;19.51;68.37;101791.34;5057433;28;1685;-56
2021/08/28 08:10:08;;;;;;;;;;;;;;;19.50;67.92;101806.69;5055207;28;1883;-54
2021/08/28 08:12:33;;;;;;;;;;;;;;;19.50;67.43;101798.59;5056073;28;1746;-55
2021/08/28 08:14:58;;;;;;;;;;;;;;;19.51;67.79;101799.44;5057601;28;1915;-55
2021/08/28 08:17:23;;;;;;;;;;;;;;;19.51;67.27;101805.72;5060030;28;1573;-55
2021/08/28 08:19:48;;;;;;;;;;;;;;;19.50;67.70;101817.50;5044328;28;1706;-56
2021/08/28 08:22:14;;;;;;;;;;;;;;;19.54;67.74;101816.22;5056754;28;1906;-54
2021/08/28 08:24:39;;;;;;;;;;;;;;;19.55;67.70;101809.84;5061260;28;1637;-56
2021/08/28 08:27:04;;;;;;;;;;;;;;;19.57;67.63;101813.25;5061038;28;2052;-53
2021/08/28 08:29:29;;;;;;;;;;;;;;;19.59;67.68;101813.13;5063383;28;1849;-59
2021/08/28 08:31:54;;;;;;;;;;;;;;;19.58;67.61;101804.16;5060875;28;1940;-59
2021/08/28 08:34:19;;;;;;;;;;;;;;;19.60;67.28;101820.25;5063039;28;1791;-59
2021/08/28 08:36:44;;;;;;;;;;;;;;;19.58;67.89;101812.28;5061560;28;1588;-58
2021/08/28 08:39:09;;;;;;;;;;;;;;;19.60;67.68;101812.13;5061818;28;1737;-58
2021/08/28 08:41:34;;;;;;;;;;;;;;;19.57;67.73;101818.66;5061278;28;1929;-59
2021/08/28 08:44:00;;;;;;;;;;;;;;;19.55;68.25;101822.50;5056268;28;1929;-59
2021/08/28 08:46:26;;;;;;;;;;;;;;;19.53;68.34;101819.91;5057735;28;1571;-59
2021/08/28 08:48:52;;;;;;;;;;;;;;;19.50;67.26;101825.63;5059756;28;1656;-59
2021/08/28 08:51:18;;;;;;;;;;;;;;;19.46;66.96;101821.44;5062847;28;1786;-58
2021/08/28 08:53:43;;;;;;;;;;;;;;;19.48;67.24;101827.56;5063277;28;1925;-57
2021/08/28 08:56:09;;;;;;;;;;;;;;;19.51;67.77;101826.47;5067675;28;2060;-59
2021/08/28 08:58:34;;;;;;;;;;;;;;;19.51;66.86;101821.06;5065566;28;1724;-59
2021/08/28 09:00:59;;;;;;;;;;;;;;;19.51;67.66;101821.94;5057566;28;1662;-58
2021/08/28 09:03:24;;;;;;;;;;;;;;;19.51;67.47;101821.06;5057579;28;1953;-59
2021/08/28 09:05:50;;;;;;;;;;;;;;;19.53;67.93;101824.47;5059434;28;1850;-59
2021/08/28 09:08:15;;;;;;;;;;;;;;;19.56;67.42;101819.66;5056466;28;1998;-60
2021/08/28 09:10:40;;;;;;;;;;;;;;;19.56;67.49;101822.34;5065194;28;1649;-58
2021/08/28 09:13:05;;;;;;;;;;;;;;;19.57;67.68;101815.97;5063653;28;1481;-59
2021/08/28 09:15:30;;;;;;;;;;;;;;;19.59;67.26;101823.94;5056515;28;1662;-59
2021/08/28 09:17:55;;;;;;;;;;;;;;;19.61;66.84;101828.22;5058135;28;1404;-57
2021/08/28 09:20:20;;;;;;;;;;;;;;;19.63;66.75;101817.28;5065587;28;1607;-58
2021/08/28 09:22:45;;;;;;;;;;;;;;;19.62;67.65;101810.16;5064590;28;1918;-59
2021/08/28 09:25:10;;;;;;;;;;;;;;;19.60;67.14;101815.69;5060882;28;1534;-58
2021/08/28 09:27:36;;;;;;;;;;;;;;;19.61;67.35;101811.16;5054081;28;1953;-58
2021/08/28 09:30:01;;;;;;;;;;;;;;;19.61;67.12;101811.16;5055198;28;1875;-58
2021/08/28 09:32:26;;;;;;;;;;;;;;;19.61;67.41;101816.56;5055905;28;1634;-58
2021/08/28 09:34:51;;;;;;;;;;;;;;;19.62;66.95;101816.44;5055606;28;1845;-59
2021/08/28 09:37:16;;;;;;;;;;;;;;;19.60;66.79;101818.41;5053513;28;1851;-58
2021/08/28 09:39:41;;;;;;;;;;;;;;;19.58;66.93;101820.38;5055368;28;1839;-58
2021/08/28 09:42:06;;;;;;;;;;;;;;;19.58;66.57;101823.09;5055161;28;2061;-57
2021/08/28 09:44:31;;;;;;;;;;;;;;;19.56;66.97;101833.19;5055439;28;1570;-58
2021/08/28 09:46:57;;;;;;;;;;;;;;;19.59;66.45;101835.63;5058811;28;1978;-58
2021/08/28 09:49:22;;;;;;;;;;;;;;;19.54;66.94;101835.16;5047893;28;1498;-57
2021/08/28 09:51:47;;;;;;;;;;;;;;;19.54;66.13;101835.16;5055980;28;1709;-58
2021/08/28 09:54:12;;;;;;;;;;;;;;;19.53;66.83;101838.84;5053557;28;1974;-58
2021/08/28 09:56:41;;;;;;;;;;;;;;;19.47;65.41;101842.06;5042396;28;2187;-58
2021/08/28 09:59:06;;;;;;;;;;;;;;;19.45;65.35;101852.16;5054742;28;1700;-58
2021/08/28 10:01:31;;;;;;;;;;;;;;;19.50;65.91;101841.00;5046230;28;2020;-57
2021/08/28 10:03:56;;;;;;;;;;;;;;;19.52;66.63;101842.56;5048506;28;1712;-58
2021/08/28 10:06:21;;;;;;;;;;;;;;;19.53;65.47;101844.25;5054237;28;1713;-58
2021/08/28 10:08:47;;;;;;;;;;;;;;;19.53;65.40;101841.56;5045642;28;1799;-57
2021/08/28 10:11:12;;;;;;;;;;;;;;;19.53;65.89;101844.25;5055079;28;2024;-58
2021/08/28 10:13:37;;;;;;;;;;;;;;;19.54;65.32;101839.69;5055051;28;1955;-58
2021/08/28 10:16:02;;;;;;;;;;;;;;;19.53;65.40;101844.25;5057871;28;1815;-57
2021/08/28 10:18:27;;;;;;;;;;;;;;;19.55;65.45;101844.13;5055324;28;1829;-58
2021/08/28 10:20:53;;;;;;;;;;;;;;;19.57;65.72;101842.16;5054853;28;1903;-56
2021/08/28 10:23:18;;;;;;;;;;;;;;;19.58;65.93;101838.44;5054992;28;1906;-59
2021/08/28 10:25:43;;;;;;;;;;;;;;;19.60;65.67;101848.16;5054774;28;1896;-57
2021/08/28 10:28:08;;;;;;;;;;;;;;;19.61;65.97;101847.16;5055149;28;1870;-58
2021/08/28 10:30:34;;;;;;;;;;;;;;;19.64;65.77;101848.75;5054525;28;2061;-58
2021/08/28 10:32:59;;;;;;;;;;;;;;;19.62;65.33;101851.59;5054782;28;1881;-58
2021/08/28 10:35:24;;;;;;;;;;;;;;;19.61;64.97;101847.16;5054527;28;2063;-58
2021/08/28 10:37:49;;;;;;;;;;;;;;;19.61;65.11;101849.88;5054850;28;1691;-59
2021/08/28 10:40:14;;;;;;;;;;;;;;;19.60;64.95;101858.13;5060271;28;1902;-58
2021/08/28 10:42:39;;;;;;;;;;;;;;;19.59;64.94;101857.25;5074621;28;1957;-57
2021/08/28 10:45:04;;;;;;;;;;;;;;;19.59;64.93;101869.91;5075170;28;974;-59
2021/08/28 10:47:29;;;;;;;;;;;;;;;19.61;65.34;101862.53;5071297;28;1754;-58
2021/08/28 10:49:57;;;;;;;;;;;;;;;19.65;66.14;101864.84;5054600;28;868;-59
2021/08/28 10:52:22;;;;;;;;;;;;;;;19.68;65.97;101861.88;5054611;28;783;-59
2021/08/28 10:54:47;;;;;;;;;;;;;;;19.69;66.57;101863.59;5060349;28;1907;-60
2021/08/28 10:57:12;;;;;;;;;;;;;;;19.69;66.10;101874.41;5064086;28;1846;-59
2021/08/28 10:59:42;;;;;;;;;;;;;;;19.71;66.02;101876.94;5056962;28;906;-56
2021/08/28 11:02:07;;;;;;;;;;;;;;;19.71;65.81;101868.84;5059240;28;1894;-56
2021/08/28 11:04:32;;;;;;;;;;;;;;;19.68;66.16;101859.16;5058258;28;867;-54
2021/08/28 11:06:57;;;;;;;;;;;;;;;19.69;65.60;101860.88;5060046;28;1754;-56
2021/08/28 11:09:22;;;;;;;;;;;;;;;19.69;66.11;101851.91;5078753;28;1669;-56
2021/08/28 11:11:48;;;;;;;;;;;;;;;19.70;64.96;101862.59;5073468;28;1653;-55
2021/08/28 11:14:14;;;;;;;;;;;;;;;19.69;65.99;101858.19;5057822;28;1742;-55
2021/08/28 11:16:39;;;;;;;;;;;;;;;19.72;65.25;101859.75;5056854;28;1738;-54
2021/08/28 11:19:04;;;;;;;;;;;;;;;19.80;65.54;101869.91;5057712;28;1986;-56
2021/08/28 11:21:29;;;;;;;;;;;;;;;19.83;64.82;101862.38;5057706;28;1975;-56
2021/08/28 11:23:55;;;;;;;;;;;;;;;19.87;65.74;101860.25;5057474;28;1677;-54
2021/08/28 11:26:20;;;;;;;;;;;;;;;19.89;66.05;101864.53;5056736;28;1662;-56
2021/08/28 11:28:45;;;;;;;;;;;;;;;19.87;65.29;101871.94;5051505;28;1716;-54
2021/08/28 11:31:10;;;;;;;;;;;;;;;19.80;65.72;101865.34;5057039;28;1672;-55
2021/08/28 11:33:35;;;;;;;;;;;;;;;19.75;66.86;101863.03;5060409;28;1803;-56
2021/08/28 11:36:01;;;;;;;;;;;;;;;19.74;66.19;101866.72;5077777;28;970;-54
2021/08/28 11:38:26;;;;;;;;;;;;;;;19.74;66.67;101853.22;5077712;28;1095;-56
2021/08/28 11:40:51;;;;;;;;;;;;;;;19.74;66.40;101861.31;5076373;28;1064;-54
2021/08/28 11:43:16;;;;;;;;;;;;;;;19.75;67.46;101860.31;5077918;28;1894;-56
2021/08/28 11:45:41;;;;;;;;;;;;;;;19.76;66.94;101859.34;5077992;28;876;-56
2021/08/28 11:48:06;;;;;;;;;;;;;;;19.76;67.01;101853.94;5061745;28;1839;-54
2021/08/28 11:50:31;;;;;;;;;;;;;;;19.76;67.25;101862.03;5057545;28;1009;-56
2021/08/28 11:52:56;;;;;;;;;;;;;;;19.77;66.75;101855.66;5057827;28;926;-55
2021/08/28 11:55:22;;;;;;;;;;;;;;;19.79;66.59;101866.34;5057863;28;847;-56
2021/08/28 11:57:47;;;;;;;;;;;;;;;19.75;66.71;101856.78;5057851;28;984;-56
2021/08/28 12:00:12;;;;;;;;;;;;;;;19.75;67.56;101851.34;5060045;28;1719;-55
2021/08/28 12:02:37;;;;;;;;;;;;;;;19.72;67.21;101852.47;5057557;28;1897;-54
2021/08/28 12:05:02;;;;;;;;;;;;;;;19.74;67.40;101858.63;5057669;28;822;-55
2021/08/28 12:07:27;;;;;;;;;;;;;;;19.75;66.51;101852.22;5069802;28;1869;-55
2021/08/28 12:09:52;;;;;;;;;;;;;;;19.76;66.41;101859.34;5077335;28;1828;-55
2021/08/28 12:12:17;;;;;;;;;;;;;;;19.77;66.16;101850.25;5049755;28;1568;-53
2021/08/28 12:14:42;;;;;;;;;;;;;;;19.77;66.69;101854.78;5050666;28;1718;-52
2021/08/28 12:17:08;;;;;;;;;;;;;;;19.76;66.30;101853.94;5053600;28;1494;-56
2021/08/28 12:19:33;;;;;;;;;;;;;;;19.77;65.81;101857.50;5040209;28;1626;-56
2021/08/28 12:21:58;;;;;;;;;;;;;;;19.77;65.81;101866.47;5037450;28;1957;-55
2021/08/28 12:24:23;;;;;;;;;;;;;;;19.79;65.71;101860.06;5035919;28;1176;-55
2021/08/28 12:26:49;;;;;;;;;;;;;;;19.80;65.91;101869.91;5048112;28;1683;-53
2021/08/28 12:29:14;;;;;;;;;;;;;;;19.80;65.68;101856.38;5056641;28;875;-56
2021/08/28 12:31:39;;;;;;;;;;;;;;;19.84;65.25;101863.25;5056647;28;819;-54
2021/08/28 12:34:04;;;;;;;;;;;;;;;19.83;65.43;101865.09;5056489;28;997;-56
2021/08/28 12:36:29;;;;;;;;;;;;;;;19.85;65.74;101857.69;5056834;28;902;-53